Rochester, KY

1:03 AM CST on December 27, 2014 (GMT -0600)
RAWS GREENVILLE KY US | Change Station
CLOSE
Current Station
Personal Weather Station
Location: Central City, KY
Elevation: 551 ft
Nearby Weather Stations

Elev 551 ft 37.27 °N, 87.20 °W | Updated 48 minutes ago

Mostly Cloudy
Mostly Cloudy
47 °F
Feels Like 44 °F
N
7
Wind Variable Wind from WSW
Gusts 10.0 mph

Today
High -- | Low -- °F
--% Chance of Precip.
Yesterday
High -- | Low -- °F
Precip. -- in
7:00 AM 4:37 PM
Waxing Crescent, 33% visible
Pressure 30.21 in
Visibility 10.0 miles
Clouds Scattered Clouds 8000 ft
Windchill 44 °F
Dew Point 38 °F
Humidity 70%
Rainfall 0.00 in
Snow Depth Not available.
UV 0 out of 12
Pollen .10 out of 12
Air Quality Not available.
Flu Activity Not available.
METAR KBWG 270653Z AUTO 15003KT 10SM SCT080 07/02 A3021 RMK AO2 SLP230 T00670022 $

More Conditions Fewer Conditions

Pressure 30.21 in
Visibility 10.0 miles
Clouds Scattered Clouds 8000 ft
Windchill 44 °F
Dew Point 38 °F
Humidity 70%
Rainfall 0.00 in
Snow Depth Not available.
UV 0 out of 12
Pollen .10 out of 12
Air Quality Not available.
Flu Activity Not available.
METAR KBWG 270653Z AUTO 15003KT 10SM SCT080 07/02 A3021 RMK AO2 SLP230 T00670022 $

More Conditions Fewer Conditions

10-Day Weather Forecast

Almanac

Astronomy

Dec. 27, 2014 Rise Set
Actual Time
Civil Twilight
Nautical Twilight
Astronomical Twilight
Moon
Length of Visible Light
Length of Day
Tomorrow will be .
, % of the Moon is Illuminated

Today's Extremes

State Highs State Lows

Community

WunderPhotos

Upload Photos

1,780,863 photos uploaded!

WunderBlogs® & News

Nearby

Air Quality

  Air Quality AQ Index Pollutant
Not available.

Snow Depth

Station Depth Elevation

Earthquake Activity

City Distance Mag. Time & Date
Minimum magnitude displayed is 2.5.

Coastal Water Temperatures

Place Temperature

Nearby Weather Stations